Kivalina, AK

3:22 PM AKST on November 21, 2014 (GMT -0900)
Kivalina | Change Station
CLOSE
Current Station
Airport
Location: Kivalina,
Elevation: 10 ft
Nearby Weather Stations

Elev 10 ft 67.73 °N, 164.55 °W | Updated 29 minutes ago

Clear
Clear
20 °F
Feels Like 9 °F
N
9
Wind Variable Wind from NNE

Today
High -- | Low -- °F
--% Chance of Precip.
Yesterday
High -- | Low -- °F
Precip. -- in
11:36 AM 3:50 PM
Waning Crescent, 0% visible
Pressure 29.40 in
Visibility 10.0 miles
Clouds Clear
Windchill 9 °F
Dew Point 15 °F
Humidity 81%
Rainfall 0.00 in
Snow Depth Not available.
UV 0 out of 12
Pollen Not available.
Air Quality Not available.
Flu Activity Not available.
METAR PAVL 212353Z AUTO 02008KT 10SM CLR M07/M09 A2940 RMK AO2 SLP955 60000 T10671094 11028 21072 58003 TSNO $

More Conditions Fewer Conditions

Pressure 29.40 in
Visibility 10.0 miles
Clouds Clear
Windchill 9 °F
Dew Point 15 °F
Humidity 81%
Rainfall 0.00 in
Snow Depth Not available.
UV 0 out of 12
Pollen Not available.
Air Quality Not available.
Flu Activity Not available.
METAR PAVL 212353Z AUTO 02008KT 10SM CLR M07/M09 A2940 RMK AO2 SLP955 60000 T10671094 11028 21072 58003 TSNO $

More Conditions Fewer Conditions

10-Day Weather Forecast

Almanac

Astronomy

Nov. 21, 2014 Rise Set
Actual Time
Civil Twilight
Nautical Twilight
Astronomical Twilight
Moon
Length of Visible Light
Length of Day
Tomorrow will be .
, % of the Moon is Illuminated

Today's Extremes

State Highs State Lows

Community

WunderPhotos

Upload Photos

1,772,744 photos uploaded!

WunderBlogs® & News

Nearby

Air Quality

  Air Quality AQ Index Pollutant
Not available.

Snow Depth

Station Depth Elevation

Earthquake Activity

City Distance Mag. Time & Date
Minimum magnitude displayed is 2.5.

Coastal Water Temperatures

Place Temperature

Nearby Weather Stations